createdAt,value
2023-03-01T00:01:17.027Z,5.05
2023-03-01T00:03:45.427Z,5.10
2023-03-01T00:06:14.400Z,4.70
2023-03-01T00:08:42.432Z,4.55
2023-03-01T00:11:13.879Z,4.53
2023-03-01T00:13:43.148Z,5.25
2023-03-01T00:16:14.877Z,4.85
2023-03-01T00:18:43.509Z,4.50
2023-03-01T00:21:11.748Z,4.70
2023-03-01T00:23:40.598Z,4.80
2023-03-01T00:26:10.648Z,5.07
2023-03-01T00:28:42.040Z,4.28
2023-03-01T00:31:14.346Z,4.60
2023-03-01T00:33:42.735Z,4.45
2023-03-01T00:36:12.430Z,5.13
2023-03-01T00:38:52.831Z,4.93
2023-03-01T00:41:23.873Z,5.10
2023-03-01T00:43:52.260Z,4.60
2023-03-01T00:46:23.570Z,4.82
2023-03-01T00:48:51.693Z,5.03
2023-03-01T00:51:21.636Z,5.00
2023-03-01T00:53:52.381Z,5.15
2023-03-01T00:56:20.807Z,4.90
2023-03-01T00:58:48.865Z,4.60
2023-03-01T01:01:21.345Z,5.10
2023-03-01T01:03:52.203Z,4.63
2023-03-01T01:06:22.733Z,5.53
2023-03-01T01:08:51.755Z,5.13
2023-03-01T01:11:20.232Z,5.05
2023-03-01T01:13:49.543Z,5.20
2023-03-01T01:16:19.155Z,4.97
2023-03-01T01:18:48.729Z,4.88
2023-03-01T01:21:18.592Z,5.20
2023-03-01T01:23:47.852Z,5.18
2023-03-01T01:26:18.509Z,4.88
2023-03-01T01:28:46.790Z,5.18
2023-03-01T01:31:14.736Z,4.97
2023-03-01T01:33:42.904Z,5.03
2023-03-01T01:36:12.713Z,5.10
2023-03-01T01:38:40.940Z,5.15
2023-03-01T01:41:09.706Z,4.75
2023-03-01T01:43:40.415Z,5.45
2023-03-01T01:46:17.423Z,4.75
2023-03-01T01:48:49.456Z,5.30
2023-03-01T01:51:24.657Z,4.97
2023-03-01T01:53:57.644Z,4.82
2023-03-01T01:56:27.105Z,4.13
2023-03-01T01:58:55.831Z,5.15
2023-03-01T02:01:24.268Z,3.95
2023-03-01T02:03:53.424Z,4.82
2023-03-01T02:06:30.631Z,4.95
2023-03-01T02:09:02.581Z,4.82
2023-03-01T02:11:32.974Z,4.25
2023-03-01T02:14:01.539Z,3.92
2023-03-01T02:16:30.606Z,3.75
2023-03-01T02:18:59.954Z,4.55
2023-03-01T02:21:49.016Z,3.80
2023-03-01T02:24:31.682Z,4.07
2023-03-01T02:27:02.753Z,4.38
2023-03-01T02:29:32.678Z,4.18
2023-03-01T02:32:04.046Z,4.18
2023-03-01T02:34:33.616Z,3.80
2023-03-01T02:37:08.308Z,4.15
2023-03-01T02:39:43.210Z,3.97
2023-03-01T02:42:16.281Z,4.43
2023-03-01T02:44:47.136Z,4.72
2023-03-01T02:47:15.302Z,4.40
2023-03-01T02:49:43.807Z,3.67
2023-03-01T02:52:38.327Z,4.30
2023-03-01T02:55:09.928Z,3.97
2023-03-01T02:57:41.443Z,4.07
2023-03-01T03:00:20.715Z,4.15
2023-03-01T03:02:50.653Z,4.30
2023-03-01T03:05:23.004Z,3.85
2023-03-01T03:07:55.211Z,4.10
2023-03-01T03:10:26.728Z,4.50
2023-03-01T03:12:56.778Z,3.63
2023-03-01T03:15:27.603Z,3.88
2023-03-01T03:17:58.826Z,3.60
2023-03-01T03:20:29.295Z,3.95
2023-03-01T03:22:59.651Z,3.63
2023-03-01T03:25:30.383Z,3.45
2023-03-01T03:27:59.422Z,3.15
2023-03-01T03:30:31.281Z,3.42
2023-03-01T03:33:00.878Z,2.78
2023-03-01T03:35:33.459Z,2.63
2023-03-01T03:38:05.330Z,2.72
2023-03-01T03:40:35.701Z,3.38
2023-03-01T03:43:04.672Z,3.15
2023-03-01T03:45:36.434Z,3.60
2023-03-01T03:48:06.822Z,2.80
2023-03-01T03:50:35.817Z,2.75
2023-03-01T03:53:06.346Z,3.00
2023-03-01T03:55:35.029Z,2.80
2023-03-01T03:58:08.184Z,3.15
2023-03-01T04:00:39.887Z,2.55
2023-03-01T04:03:08.539Z,2.97
2023-03-01T04:05:37.731Z,2.85
2023-03-01T04:08:09.234Z,2.60
2023-03-01T04:10:39.284Z,2.70
2023-03-01T04:13:08.592Z,2.58
2023-03-01T04:15:38.298Z,2.53
2023-03-01T04:18:06.931Z,2.17
2023-03-01T04:20:36.695Z,1.80
2023-03-01T04:23:14.576Z,1.83
2023-03-01T04:25:46.691Z,1.70
2023-03-01T04:28:15.431Z,2.05
2023-03-01T04:30:44.898Z,1.90
2023-03-01T04:33:13.241Z,1.85
2023-03-01T04:35:42.107Z,1.88
2023-03-01T04:38:10.761Z,1.73
2023-03-01T04:40:39.160Z,1.52
2023-03-01T04:43:07.651Z,1.70
2023-03-01T04:45:35.808Z,1.38
2023-03-01T04:48:06.340Z,1.60
2023-03-01T04:50:34.969Z,1.40
2023-03-01T04:53:03.026Z,1.13
2023-03-01T04:55:31.438Z,1.27
2023-03-01T04:57:59.491Z,1.30
2023-03-01T05:00:27.757Z,1.08
2023-03-01T05:02:58.097Z,1.30
2023-03-01T05:05:29.623Z,1.10
2023-03-01T05:07:59.402Z,1.10
2023-03-01T05:10:30.510Z,1.05
2023-03-01T05:12:59.517Z,1.08
2023-03-01T05:15:29.176Z,1.05
2023-03-01T05:18:02.412Z,0.88
2023-03-01T05:20:32.349Z,0.88
2023-03-01T05:23:06.395Z,0.98
2023-03-01T05:25:35.482Z,0.77
2023-03-01T05:28:05.692Z,1.08
2023-03-01T05:30:34.519Z,1.10
2023-03-01T05:33:03.402Z,0.90
2023-03-01T05:35:34.861Z,0.90
2023-03-01T05:38:03.237Z,1.17
2023-03-01T05:40:31.488Z,1.08
2023-03-01T05:42:59.607Z,0.85
2023-03-01T05:45:28.957Z,0.90
2023-03-01T05:47:57.085Z,1.00
2023-03-01T05:50:26.605Z,0.90
2023-03-01T05:53:01.276Z,1.00
2023-03-01T05:55:30.573Z,1.27
2023-03-01T05:58:01.198Z,1.10
2023-03-01T06:00:31.075Z,1.20
2023-03-01T06:03:00.105Z,1.60
2023-03-01T06:05:29.437Z,1.60
2023-03-01T06:08:00.787Z,1.10
2023-03-01T06:10:28.938Z,1.33
2023-03-01T06:12:57.305Z,1.13
2023-03-01T06:15:26.280Z,1.30
2023-03-01T06:18:00.289Z,1.10
2023-03-01T06:20:29.770Z,1.33
2023-03-01T06:22:59.242Z,1.35
2023-03-01T06:25:34.181Z,1.10
2023-03-01T06:28:02.141Z,1.60
2023-03-01T06:30:30.040Z,1.20
2023-03-01T06:33:01.990Z,1.38
2023-03-01T06:35:33.271Z,1.33
2023-03-01T06:38:04.557Z,1.40
2023-03-01T06:40:33.199Z,1.38
2023-03-01T06:43:02.129Z,2.10
2023-03-01T06:45:30.264Z,4.43
2023-03-01T06:48:05.908Z,2.30
2023-03-01T06:50:34.842Z,2.07
2023-03-01T06:53:04.255Z,1.70
2023-03-01T06:55:32.971Z,1.40
2023-03-01T06:58:02.406Z,1.80
2023-03-01T07:00:31.745Z,1.40
2023-03-01T07:03:01.491Z,1.60
2023-03-01T07:05:29.990Z,1.75
2023-03-01T07:07:57.972Z,1.58
2023-03-01T07:10:27.428Z,1.60
2023-03-01T07:12:56.994Z,1.73
2023-03-01T07:15:25.632Z,1.55
2023-03-01T07:17:53.665Z,1.58
2023-03-01T07:20:26.732Z,1.70
2023-03-01T07:22:55.564Z,1.95
2023-03-01T07:25:23.738Z,1.70
2023-03-01T07:27:53.864Z,1.73
2023-03-01T07:30:22.511Z,2.00
2023-03-01T07:32:50.759Z,2.40
2023-03-01T07:35:18.934Z,2.40
2023-03-01T07:37:46.973Z,2.40
2023-03-01T07:40:15.248Z,2.42
2023-03-01T07:42:43.651Z,2.53
2023-03-01T07:45:14.693Z,2.40
2023-03-01T07:47:43.714Z,2.60
2023-03-01T07:50:12.590Z,2.50
2023-03-01T07:52:40.623Z,3.05
2023-03-01T07:55:09.949Z,2.80
2023-03-01T07:57:37.983Z,2.53
2023-03-01T08:00:07.184Z,2.70
2023-03-01T08:02:43.197Z,2.08
2023-03-01T08:05:11.532Z,2.78
2023-03-01T08:07:39.824Z,2.70
2023-03-01T08:10:08.761Z,2.33
2023-03-01T08:12:36.823Z,2.42
2023-03-01T08:15:12.358Z,2.50
2023-03-01T08:17:41.958Z,2.63
2023-03-01T08:20:13.777Z,2.38
2023-03-01T08:22:41.813Z,3.00
2023-03-01T08:25:10.526Z,2.90
2023-03-01T08:27:38.880Z,2.83
2023-03-01T08:30:08.788Z,2.78
2023-03-01T08:32:41.523Z,3.20
2023-03-01T08:35:10.208Z,3.53
2023-03-01T08:37:38.149Z,3.65
2023-03-01T08:40:08.438Z,2.92
2023-03-01T08:42:36.483Z,2.67
2023-03-01T08:45:04.718Z,3.20
2023-03-01T08:47:34.697Z,2.65
2023-03-01T08:50:04.769Z,3.20
2023-03-01T08:52:34.318Z,2.72
2023-03-01T08:55:34.406Z,2.92
2023-03-01T08:58:02.485Z,2.80
2023-03-01T09:00:30.372Z,3.13
2023-03-01T09:02:58.265Z,3.45
2023-03-01T09:05:27.582Z,4.80
2023-03-01T09:07:58.444Z,3.42
2023-03-01T09:10:26.419Z,4.05
2023-03-01T09:12:54.338Z,4.38
2023-03-01T09:15:22.367Z,3.50
2023-03-01T09:17:53.631Z,2.88
2023-03-01T09:20:21.702Z,2.58
2023-03-01T09:22:51.264Z,2.30
2023-03-01T09:25:19.376Z,2.20
2023-03-01T09:27:48.073Z,1.63
2023-03-01T09:30:16.632Z,2.67
2023-03-01T09:32:45.878Z,1.35
2023-03-01T09:35:14.314Z,1.65
2023-03-01T09:37:45.754Z,1.42
2023-03-01T09:40:18.759Z,1.00
2023-03-01T09:43:07.958Z,1.20
2023-03-01T09:45:39.589Z,0.82
2023-03-01T09:48:14.001Z,1.33
2023-03-01T09:50:44.970Z,1.00
2023-03-01T09:53:17.380Z,1.50
2023-03-01T09:55:52.031Z,1.17
2023-03-01T09:58:36.420Z,1.30
2023-03-01T10:01:11.521Z,1.17
2023-03-01T10:03:45.513Z,2.28
2023-03-01T10:06:32.122Z,2.20
2023-03-01T10:09:07.427Z,2.40
2023-03-01T10:11:40.764Z,2.60
2023-03-01T10:14:20.878Z,2.60
2023-03-01T10:16:53.829Z,2.00
2023-03-01T10:19:25.024Z,2.30
2023-03-01T10:21:54.458Z,1.80
2023-03-01T10:24:22.950Z,2.17
2023-03-01T10:26:57.932Z,1.73
2023-03-01T10:29:31.118Z,1.88
2023-03-01T10:31:59.514Z,1.70
2023-03-01T10:34:30.981Z,2.00
2023-03-01T10:37:20.864Z,1.75
2023-03-01T10:40:01.604Z,1.60
2023-03-01T10:42:33.208Z,1.63
2023-03-01T10:45:18.964Z,1.70
2023-03-01T10:47:47.064Z,1.42
2023-03-01T10:50:24.953Z,1.13
2023-03-01T10:53:01.150Z,1.30
2023-03-01T10:55:33.618Z,1.30
2023-03-01T10:58:17.754Z,1.60
2023-03-01T11:00:49.712Z,1.77
2023-03-01T11:03:23.318Z,1.40
2023-03-01T11:06:01.703Z,1.60
2023-03-01T11:08:41.842Z,1.20
2023-03-01T11:11:23.297Z,1.35
2023-03-01T11:13:58.824Z,1.10
2023-03-01T11:16:29.612Z,1.15
2023-03-01T11:19:00.071Z,1.38
2023-03-01T11:21:30.432Z,1.08
2023-03-01T11:24:01.439Z,1.40
2023-03-01T11:26:32.698Z,1.67
2023-03-01T11:29:06.522Z,1.25
2023-03-01T11:31:35.802Z,1.48
2023-03-01T11:34:12.977Z,1.20
2023-03-01T11:36:47.396Z,0.98
2023-03-01T11:39:26.467Z,1.20
2023-03-01T11:42:12.904Z,1.23
2023-03-01T11:44:49.507Z,1.20
2023-03-01T11:47:42.812Z,1.80
2023-03-01T11:50:27.633Z,1.50
2023-03-01T11:53:14.974Z,1.33
2023-03-01T11:56:02.520Z,1.50
2023-03-01T11:58:55.848Z,1.30
2023-03-01T12:01:42.280Z,1.70
2023-03-01T12:04:31.619Z,1.50
2023-03-01T12:07:02.037Z,1.58
2023-03-01T12:09:43.974Z,1.55
2023-03-01T12:12:32.894Z,1.83
2023-03-01T12:15:29.249Z,1.85
2023-03-01T12:18:24.411Z,2.10
2023-03-01T12:21:02.048Z,1.90
2023-03-01T12:24:04.045Z,1.73
2023-03-01T12:26:35.683Z,1.70
2023-03-01T12:29:20.907Z,2.10
2023-03-01T12:32:13.940Z,1.42
2023-03-01T12:35:03.952Z,2.05
2023-03-01T12:37:42.486Z,1.67
2023-03-01T12:40:42.613Z,3.10
2023-03-01T12:43:23.513Z,2.40
2023-03-01T12:46:09.998Z,2.30
2023-03-01T12:48:47.349Z,2.17
2023-03-01T12:51:22.501Z,1.88
2023-03-01T12:53:51.942Z,1.50
2023-03-01T12:56:22.808Z,0.90
2023-03-01T12:59:00.914Z,1.42
2023-03-01T13:01:41.114Z,1.35
2023-03-01T13:04:19.149Z,1.20
2023-03-01T13:06:59.837Z,1.02
2023-03-01T13:09:36.372Z,1.70
2023-03-01T13:14:46.058Z,1.30
2023-03-01T13:17:41.703Z,1.33
2023-03-01T13:20:16.330Z,1.15
2023-03-01T13:22:54.675Z,1.40
2023-03-01T13:25:27.594Z,1.23
2023-03-01T13:28:38.927Z,1.02
2023-03-01T13:31:08.043Z,1.00
2023-03-01T13:33:42.164Z,1.02
2023-03-01T13:36:14.590Z,1.20
2023-03-01T13:38:49.645Z,1.55
2023-03-01T13:41:38.578Z,1.98
2023-03-01T13:44:14.474Z,1.48
2023-03-01T13:46:44.904Z,1.50
2023-03-01T13:49:17.984Z,1.40
2023-03-01T13:51:55.172Z,1.67
2023-03-01T13:54:30.911Z,1.60
2023-03-01T13:57:01.236Z,1.92
2023-03-01T13:59:31.445Z,1.92
2023-03-01T14:02:01.494Z,1.90
2023-03-01T14:04:32.683Z,2.05
2023-03-01T14:07:20.009Z,2.30
2023-03-01T14:09:53.830Z,2.25
2023-03-01T14:12:34.577Z,2.55
2023-03-01T14:15:07.978Z,2.30
2023-03-01T14:17:48.020Z,3.28
2023-03-01T14:20:21.846Z,3.53
2023-03-01T14:22:52.235Z,2.30
2023-03-01T14:25:28.298Z,3.15
2023-03-01T14:28:05.837Z,2.78
2023-03-01T14:30:39.061Z,2.10
2023-03-01T14:33:20.070Z,2.08
2023-03-01T14:35:55.946Z,2.08
2023-03-01T14:38:25.143Z,2.05
2023-03-01T14:40:58.641Z,8.73
2023-03-01T14:43:27.626Z,2.00
2023-03-01T14:45:55.910Z,7.22
2023-03-01T14:48:24.688Z,6.00
2023-03-01T14:50:53.182Z,5.13
2023-03-01T14:53:24.589Z,5.28
2023-03-01T14:55:56.271Z,4.50
2023-03-01T14:58:27.829Z,2.75
2023-03-01T15:00:57.958Z,2.35
2023-03-01T15:03:31.748Z,2.58
2023-03-01T15:06:02.490Z,1.90
2023-03-01T15:08:34.370Z,1.75
2023-03-01T15:11:09.161Z,2.58
2023-03-01T15:13:38.098Z,1.90
2023-03-01T15:16:09.780Z,1.90
2023-03-01T15:18:39.248Z,2.10
2023-03-01T15:21:10.200Z,1.92
2023-03-01T15:23:41.086Z,2.72
2023-03-01T15:26:25.008Z,2.70
2023-03-01T15:28:59.656Z,2.50
2023-03-01T15:31:29.275Z,3.63
2023-03-01T15:34:11.261Z,2.70
2023-03-01T15:36:44.864Z,2.03
2023-03-01T15:39:47.119Z,2.30
2023-03-01T15:42:39.994Z,2.60
2023-03-01T15:45:12.593Z,2.38
2023-03-01T15:47:42.519Z,2.47
2023-03-01T15:50:20.427Z,2.58
2023-03-01T15:52:49.047Z,5.05
2023-03-01T15:55:19.583Z,4.32
2023-03-01T15:57:50.395Z,3.83
2023-03-01T16:00:20.154Z,3.10
2023-03-01T16:02:48.656Z,2.67
2023-03-01T16:05:21.756Z,2.28
2023-03-01T16:07:50.239Z,2.67
2023-03-01T16:10:19.004Z,3.10
2023-03-01T16:12:49.179Z,4.72
2023-03-01T16:15:20.020Z,5.45
2023-03-01T16:17:49.131Z,6.15
2023-03-01T16:20:28.601Z,4.47
2023-03-01T16:23:01.475Z,3.55
2023-03-01T16:25:30.491Z,2.40
2023-03-01T16:28:05.397Z,2.83
2023-03-01T16:30:36.896Z,2.67
2023-03-01T16:33:25.145Z,2.50
2023-03-01T16:35:54.909Z,4.53
2023-03-01T16:38:23.194Z,2.30
2023-03-01T16:40:52.990Z,2.30
2023-03-01T16:43:23.396Z,3.28
2023-03-01T16:45:52.243Z,5.45
2023-03-01T16:48:20.435Z,4.28
2023-03-01T16:50:58.315Z,6.32
2023-03-01T16:53:27.116Z,6.68
2023-03-01T16:55:56.367Z,5.93
2023-03-01T16:58:26.394Z,5.57
2023-03-01T17:00:55.653Z,5.85
2023-03-01T17:03:25.205Z,6.40
2023-03-01T17:05:53.959Z,6.20
2023-03-01T17:08:22.307Z,6.10
2023-03-01T17:10:52.513Z,4.55
2023-03-01T17:13:20.944Z,6.32
2023-03-01T17:15:50.701Z,4.57
2023-03-01T17:18:19.060Z,3.08
2023-03-01T17:20:47.487Z,3.72
2023-03-01T17:23:17.352Z,3.47
2023-03-01T17:25:46.574Z,4.40
2023-03-01T17:28:15.522Z,3.58
2023-03-01T17:30:45.834Z,3.97
2023-03-01T17:33:16.453Z,3.35
2023-03-01T17:35:47.605Z,3.63
2023-03-01T17:38:16.490Z,2.65
2023-03-01T17:40:50.159Z,2.85
2023-03-01T17:43:18.668Z,2.95
2023-03-01T17:45:51.778Z,2.83
2023-03-01T17:48:21.235Z,2.63
2023-03-01T17:50:49.280Z,2.30
2023-03-01T17:53:17.238Z,2.17
2023-03-01T17:55:45.648Z,2.20
2023-03-01T17:58:14.908Z,2.95
2023-03-01T18:00:42.790Z,2.70
2023-03-01T18:03:11.505Z,2.85
2023-03-01T18:05:41.337Z,3.13
2023-03-01T18:08:09.141Z,2.90
2023-03-01T18:10:37.685Z,3.20
2023-03-01T18:13:05.914Z,4.03
2023-03-01T18:15:33.964Z,2.67
2023-03-01T18:18:02.091Z,3.20
2023-03-01T18:20:30.959Z,2.67
2023-03-01T18:23:00.386Z,2.45
2023-03-01T18:25:29.411Z,2.60
2023-03-01T18:27:57.476Z,2.47
2023-03-01T18:30:25.728Z,3.40
2023-03-01T18:32:56.534Z,3.72
2023-03-01T18:35:24.538Z,3.70
2023-03-01T18:37:52.309Z,3.25
2023-03-01T18:40:21.840Z,2.58
2023-03-01T18:42:49.641Z,2.38
2023-03-01T18:45:19.465Z,2.10
2023-03-01T18:47:50.136Z,2.25
2023-03-01T18:50:18.331Z,2.20
2023-03-01T18:52:46.077Z,1.70
2023-03-01T18:55:14.599Z,1.80
2023-03-01T18:57:43.907Z,1.70
2023-03-01T19:00:13.640Z,2.00
2023-03-01T19:02:42.185Z,1.50
2023-03-01T19:05:10.465Z,2.03
2023-03-01T19:07:38.221Z,1.80
2023-03-01T19:10:07.202Z,2.00
2023-03-01T19:12:35.935Z,2.17
2023-03-01T19:15:06.522Z,2.22
2023-03-01T19:17:34.920Z,1.42
2023-03-01T19:20:02.865Z,2.33
2023-03-01T19:22:30.701Z,2.30
2023-03-01T19:24:58.473Z,3.92
2023-03-01T19:27:26.531Z,4.40
2023-03-01T19:29:54.331Z,4.97
2023-03-01T19:32:23.605Z,3.83
2023-03-01T19:34:51.363Z,3.92
2023-03-01T19:37:18.961Z,3.85
2023-03-01T19:39:48.422Z,4.00
2023-03-01T19:42:16.619Z,4.90
2023-03-01T19:44:44.540Z,5.85
2023-03-01T19:47:12.576Z,5.97
2023-03-01T19:49:42.549Z,5.40
2023-03-01T19:52:10.361Z,6.05
2023-03-01T19:54:38.232Z,5.78
2023-03-01T19:57:05.987Z,5.78
2023-03-01T19:59:33.552Z,6.45
2023-03-01T20:02:02.038Z,6.82
2023-03-01T20:04:30.420Z,8.23
2023-03-01T20:07:00.270Z,7.35
2023-03-01T20:09:28.770Z,9.40
2023-03-01T20:11:56.644Z,8.10
2023-03-01T20:14:29.774Z,8.88
2023-03-01T20:16:58.768Z,8.05
2023-03-01T20:19:26.613Z,8.30
2023-03-01T20:21:54.535Z,8.77
2023-03-01T20:24:24.935Z,8.88
2023-03-01T20:26:53.128Z,8.65
2023-03-01T20:29:21.024Z,9.50
2023-03-01T20:31:49.150Z,9.10
2023-03-01T20:34:17.194Z,9.40
2023-03-01T20:36:45.261Z,9.82
2023-03-01T20:39:13.195Z,10.02
2023-03-01T20:41:43.182Z,10.80
2023-03-01T20:44:11.865Z,10.75
2023-03-01T20:46:40.212Z,9.65
2023-03-01T20:49:08.978Z,9.32
2023-03-01T20:51:38.722Z,7.90
2023-03-01T20:54:06.856Z,8.35
2023-03-01T20:56:35.961Z,7.50
2023-03-01T20:59:11.387Z,7.07
2023-03-01T21:01:41.693Z,8.60
2023-03-01T21:04:10.427Z,10.10
2023-03-01T21:06:39.320Z,10.75
2023-03-01T21:09:07.413Z,10.27
2023-03-01T21:11:37.310Z,9.88
2023-03-01T21:14:07.330Z,9.50
2023-03-01T21:16:35.776Z,9.30
2023-03-01T21:19:06.843Z,9.68
2023-03-01T21:21:37.425Z,9.98
2023-03-01T21:24:06.724Z,10.30
2023-03-01T21:26:34.781Z,10.38
2023-03-01T21:29:03.013Z,11.30
2023-03-01T21:31:34.975Z,12.75
2023-03-01T21:34:06.105Z,13.35
2023-03-01T21:36:35.806Z,14.10
2023-03-01T21:39:05.871Z,13.20
2023-03-01T21:41:35.766Z,12.90
2023-03-01T21:44:07.626Z,10.88
2023-03-01T21:46:39.149Z,9.68
2023-03-01T21:49:09.116Z,7.90
2023-03-01T21:51:37.335Z,8.23
2023-03-01T21:54:06.132Z,8.20
2023-03-01T21:56:39.415Z,9.60
2023-03-01T21:59:09.269Z,10.40
2023-03-01T22:01:38.922Z,11.02
2023-03-01T22:04:06.975Z,10.70
2023-03-01T22:06:41.070Z,11.18
2023-03-01T22:09:12.560Z,11.15
2023-03-01T22:11:45.000Z,12.05
2023-03-01T22:14:13.921Z,10.93
2023-03-01T22:16:45.906Z,11.02
2023-03-01T22:19:15.631Z,13.02
2023-03-01T22:21:54.251Z,12.60
2023-03-01T22:24:24.613Z,13.13
2023-03-01T22:26:54.350Z,12.77
2023-03-01T22:29:23.929Z,11.70
2023-03-01T22:31:54.524Z,11.40
2023-03-01T22:34:23.361Z,13.90
2023-03-01T22:36:51.600Z,12.10
2023-03-01T22:39:21.314Z,12.55
2023-03-01T22:41:50.583Z,13.40
2023-03-01T22:44:20.635Z,17.10
2023-03-01T22:46:48.848Z,16.58
2023-03-01T22:49:18.803Z,14.80
2023-03-01T22:51:50.242Z,13.45
2023-03-01T22:54:19.709Z,11.60
2023-03-01T22:56:48.061Z,10.45
2023-03-01T22:59:23.301Z,10.25
2023-03-01T23:01:52.489Z,9.07
2023-03-01T23:04:31.608Z,10.25
2023-03-01T23:06:59.881Z,10.52
2023-03-01T23:09:31.046Z,11.18
2023-03-01T23:12:00.602Z,11.65
2023-03-01T23:14:31.876Z,11.20
2023-03-01T23:17:03.102Z,10.82
2023-03-01T23:19:33.413Z,12.00
2023-03-01T23:22:01.391Z,11.70
2023-03-01T23:24:32.139Z,11.88
2023-03-01T23:27:01.629Z,10.73
2023-03-01T23:29:29.777Z,10.38
2023-03-01T23:31:58.535Z,9.52
2023-03-01T23:34:27.260Z,9.50
2023-03-01T23:36:58.255Z,9.13
2023-03-01T23:39:26.620Z,9.18
2023-03-01T23:41:54.588Z,8.65
2023-03-01T23:44:25.763Z,8.25
2023-03-01T23:46:53.973Z,8.15
2023-03-01T23:49:23.523Z,7.28
2023-03-01T23:51:51.796Z,6.68
2023-03-01T23:54:23.606Z,5.43
2023-03-01T23:56:51.790Z,6.03
2023-03-01T23:59:22.218Z,5.80
